createdAt,value
2023-05-22T00:01:51.901Z,60.30
2023-05-22T00:04:21.575Z,59.76
2023-05-22T00:06:49.456Z,60.51
2023-05-22T00:09:16.566Z,60.30
2023-05-22T00:11:43.539Z,62.83
2023-05-22T00:14:10.336Z,62.48
2023-05-22T00:16:37.045Z,61.27
2023-05-22T00:19:04.507Z,61.11
2023-05-22T00:21:34.889Z,60.87
2023-05-22T00:24:02.428Z,61.00
2023-05-22T00:26:29.104Z,62.44
2023-05-22T00:28:55.962Z,63.73
2023-05-22T00:31:23.388Z,64.73
2023-05-22T00:33:50.079Z,65.02
2023-05-22T00:36:18.684Z,64.81
2023-05-22T00:38:45.418Z,64.88
2023-05-22T00:41:12.264Z,66.44
2023-05-22T00:43:39.653Z,65.50
2023-05-22T00:46:07.841Z,64.55
2023-05-22T00:48:34.545Z,64.67
2023-05-22T00:51:01.956Z,64.14
2023-05-22T00:53:30.455Z,62.94
2023-05-22T00:55:58.755Z,61.74
2023-05-22T00:58:27.386Z,62.45
2023-05-22T01:00:55.539Z,61.32
2023-05-22T01:03:27.014Z,61.18
2023-05-22T01:05:54.827Z,62.19
2023-05-22T01:08:21.709Z,61.53
2023-05-22T01:10:54.501Z,60.90
2023-05-22T01:13:39.748Z,61.20
2023-05-22T01:16:30.410Z,61.62
2023-05-22T01:19:31.995Z,61.01
2023-05-22T01:22:21.740Z,61.20
2023-05-22T01:24:54.398Z,61.20
2023-05-22T01:27:39.069Z,61.11
2023-05-22T01:30:21.218Z,61.38
2023-05-22T01:32:49.805Z,62.18
2023-05-22T01:35:21.062Z,61.97
2023-05-22T01:37:48.531Z,61.79
2023-05-22T01:40:15.980Z,61.66
2023-05-22T01:42:42.799Z,61.06
2023-05-22T01:45:11.602Z,61.35
2023-05-22T01:47:38.378Z,61.48
2023-05-22T01:50:06.481Z,61.07
2023-05-22T01:53:24.876Z,61.00
2023-05-22T01:56:07.935Z,61.33
2023-05-22T01:58:45.219Z,61.59
2023-05-22T02:01:14.334Z,60.90
2023-05-22T02:03:42.745Z,60.87
2023-05-22T02:06:13.133Z,60.75
2023-05-22T02:08:42.024Z,60.46
2023-05-22T02:11:11.227Z,60.30
2023-05-22T02:13:38.886Z,60.36
2023-05-22T02:16:07.579Z,60.45
2023-05-22T02:18:34.358Z,60.23
2023-05-22T02:21:02.644Z,61.20
2023-05-22T02:23:29.950Z,61.16
2023-05-22T02:25:57.253Z,61.09
2023-05-22T02:28:24.265Z,60.54
2023-05-22T02:30:50.992Z,60.57
2023-05-22T02:33:18.679Z,60.92
2023-05-22T02:35:45.917Z,60.94
2023-05-22T02:38:13.080Z,60.94
2023-05-22T02:40:40.263Z,62.41
2023-05-22T02:43:07.240Z,64.50
2023-05-22T02:45:33.986Z,66.84
2023-05-22T02:48:03.577Z,67.69
2023-05-22T02:50:30.639Z,66.71
2023-05-22T02:52:57.309Z,65.61
2023-05-22T02:55:23.992Z,65.19
2023-05-22T02:57:50.837Z,65.45
2023-05-22T03:00:18.078Z,65.48
2023-05-22T03:02:44.830Z,64.58
2023-05-22T03:05:11.755Z,63.90
2023-05-22T03:07:38.350Z,63.29
2023-05-22T03:10:05.432Z,64.14
2023-05-22T03:12:32.167Z,65.46
2023-05-22T03:14:58.840Z,64.28
2023-05-22T03:17:25.632Z,64.21
2023-05-22T03:19:52.436Z,64.68
2023-05-22T03:22:19.176Z,65.41
2023-05-22T03:24:45.832Z,64.88
2023-05-22T03:27:16.367Z,64.87
2023-05-22T03:29:43.065Z,64.41
2023-05-22T03:32:09.773Z,63.51
2023-05-22T03:34:36.736Z,64.02
2023-05-22T03:37:03.544Z,63.83
2023-05-22T03:39:30.259Z,63.42
2023-05-22T03:41:57.029Z,63.94
2023-05-22T03:44:23.710Z,63.43
2023-05-22T03:46:51.304Z,62.77
2023-05-22T03:49:18.058Z,63.21
2023-05-22T03:51:44.821Z,64.83
2023-05-22T03:54:11.524Z,65.00
2023-05-22T03:56:38.180Z,63.95
2023-05-22T03:59:04.801Z,63.14
2023-05-22T04:01:31.597Z,63.60
2023-05-22T04:03:58.250Z,63.71
2023-05-22T04:06:25.720Z,62.41
2023-05-22T04:08:52.523Z,63.88
2023-05-22T04:11:19.841Z,63.33
2023-05-22T04:13:50.402Z,62.37
2023-05-22T04:16:17.719Z,63.06
2023-05-22T04:18:44.781Z,62.95
2023-05-22T04:21:12.883Z,63.46
2023-05-22T04:23:43.347Z,63.74
2023-05-22T04:26:10.560Z,63.51
2023-05-22T04:28:38.037Z,62.72
2023-05-22T04:31:06.562Z,62.37
2023-05-22T04:33:34.610Z,63.23
2023-05-22T04:36:03.087Z,64.29
2023-05-22T04:38:29.712Z,65.48
2023-05-22T04:40:57.161Z,64.24
2023-05-22T04:43:26.670Z,63.30
2023-05-22T04:45:54.235Z,62.97
2023-05-22T04:48:21.196Z,62.96
2023-05-22T04:50:48.376Z,62.46
2023-05-22T04:53:15.188Z,62.60
2023-05-22T04:55:42.088Z,63.63
2023-05-22T04:58:09.082Z,62.78
2023-05-22T05:00:35.940Z,61.98
2023-05-22T05:03:03.682Z,61.38
2023-05-22T05:05:30.509Z,60.45
2023-05-22T05:07:57.150Z,61.69
2023-05-22T05:10:23.792Z,61.66
2023-05-22T05:12:50.458Z,61.40
2023-05-22T05:15:17.341Z,61.96
2023-05-22T05:17:44.072Z,62.59
2023-05-22T05:20:14.419Z,61.87
2023-05-22T05:22:41.409Z,60.81
2023-05-22T05:25:09.617Z,60.36
2023-05-22T05:27:38.246Z,60.51
2023-05-22T05:30:05.376Z,62.12
2023-05-22T05:32:32.306Z,61.87
2023-05-22T05:34:58.951Z,61.21
2023-05-22T05:37:26.148Z,61.08
2023-05-22T05:39:52.831Z,59.91
2023-05-22T05:42:19.666Z,59.79
2023-05-22T05:44:46.442Z,62.60
2023-05-22T05:47:13.794Z,60.96
2023-05-22T05:49:40.532Z,61.43
2023-05-22T05:52:08.086Z,61.24
2023-05-22T05:54:34.720Z,60.05
2023-05-22T05:57:02.561Z,58.54
2023-05-22T05:59:29.179Z,57.15
2023-05-22T06:01:55.957Z,57.88
2023-05-22T06:04:22.635Z,59.35
2023-05-22T06:06:49.355Z,57.42
2023-05-22T06:09:16.461Z,56.97
2023-05-22T06:11:43.236Z,54.39
2023-05-22T06:14:10.319Z,55.74
2023-05-22T06:16:37.096Z,55.13
2023-05-22T06:19:04.781Z,54.19
2023-05-22T06:21:31.573Z,53.76
2023-05-22T06:23:58.856Z,53.13
2023-05-22T06:26:26.001Z,54.41
2023-05-22T06:28:54.105Z,54.47
2023-05-22T06:31:22.906Z,54.91
2023-05-22T06:33:50.024Z,52.60
2023-05-22T06:36:17.620Z,52.76
2023-05-22T06:38:46.100Z,53.33
2023-05-22T06:41:12.704Z,52.25
2023-05-22T06:43:39.386Z,52.18
2023-05-22T06:46:07.243Z,52.32
2023-05-22T06:48:35.294Z,51.39
2023-05-22T06:51:02.266Z,51.80
2023-05-22T06:53:28.947Z,50.95
2023-05-22T06:55:56.373Z,51.05
2023-05-22T06:58:23.015Z,52.20
2023-05-22T07:00:49.695Z,50.19
2023-05-22T07:03:16.422Z,49.76
2023-05-22T07:05:43.367Z,49.41
2023-05-22T07:08:10.421Z,50.03
2023-05-22T07:10:37.271Z,49.82
2023-05-22T07:13:04.178Z,48.67
2023-05-22T07:15:30.870Z,47.94
2023-05-22T07:17:57.694Z,47.49
2023-05-22T07:20:26.356Z,47.24
2023-05-22T07:22:53.010Z,47.35
2023-05-22T07:25:19.687Z,48.52
2023-05-22T07:27:46.354Z,47.81
2023-05-22T07:30:13.386Z,46.87
2023-05-22T07:32:40.335Z,46.57
2023-05-22T07:35:07.597Z,46.89
2023-05-22T07:37:36.068Z,48.21
2023-05-22T07:40:05.750Z,46.79
2023-05-22T07:42:32.619Z,46.61
2023-05-22T07:44:59.240Z,45.33
2023-05-22T07:47:26.084Z,46.50
2023-05-22T07:49:52.800Z,47.29
2023-05-22T07:52:19.870Z,47.37
2023-05-22T07:54:46.553Z,46.16
2023-05-22T07:57:13.542Z,47.51
2023-05-22T07:59:40.158Z,46.91
2023-05-22T08:02:08.529Z,46.01
2023-05-22T08:04:35.616Z,45.44
2023-05-22T08:07:02.643Z,44.87
2023-05-22T08:09:29.311Z,44.38
2023-05-22T08:11:55.989Z,46.12
2023-05-22T08:14:22.971Z,44.65
2023-05-22T08:16:49.730Z,43.69
2023-05-22T08:19:16.700Z,44.30
2023-05-22T08:21:43.384Z,44.17
2023-05-22T08:24:10.085Z,42.74
2023-05-22T08:26:36.935Z,43.06
2023-05-22T08:29:03.584Z,42.92
2023-05-22T08:31:30.335Z,43.83
2023-05-22T08:34:02.759Z,41.70
2023-05-22T08:36:31.689Z,41.28
2023-05-22T08:39:02.060Z,40.10
2023-05-22T08:41:29.807Z,39.54
2023-05-22T08:43:56.693Z,39.44
2023-05-22T08:46:26.526Z,38.24
2023-05-22T08:48:57.240Z,38.41
2023-05-22T08:51:28.286Z,39.64
2023-05-22T08:53:57.465Z,39.40
2023-05-22T08:56:25.178Z,39.67
2023-05-22T08:58:54.478Z,39.70
2023-05-22T09:01:22.479Z,38.37
2023-05-22T09:03:51.433Z,38.60
2023-05-22T09:06:18.700Z,37.53
2023-05-22T09:08:46.174Z,36.46
2023-05-22T09:11:13.359Z,36.29
2023-05-22T09:13:41.310Z,37.23
2023-05-22T09:16:12.874Z,34.84
2023-05-22T09:18:40.720Z,35.38
2023-05-22T09:21:21.631Z,36.81
2023-05-22T09:23:54.718Z,36.69
2023-05-22T09:26:21.652Z,34.74
2023-05-22T09:28:48.363Z,35.28
2023-05-22T09:31:15.249Z,35.43
2023-05-22T09:33:44.236Z,34.46
2023-05-22T09:36:11.321Z,33.82
2023-05-22T09:38:38.964Z,34.51
2023-05-22T09:41:05.898Z,33.66
2023-05-22T09:43:33.887Z,34.32
2023-05-22T09:46:03.189Z,34.20
2023-05-22T09:48:34.494Z,33.81
2023-05-22T09:51:02.453Z,34.88
2023-05-22T09:53:31.790Z,35.75
2023-05-22T09:56:00.235Z,34.48
2023-05-22T09:58:30.922Z,35.80
2023-05-22T10:00:58.283Z,34.76
2023-05-22T10:03:27.357Z,34.82
2023-05-22T10:05:56.504Z,36.08
2023-05-22T10:08:28.895Z,37.04
2023-05-22T10:10:55.986Z,38.32
2023-05-22T10:13:26.308Z,39.29
2023-05-22T10:15:54.467Z,39.87
2023-05-22T10:18:21.933Z,39.75
2023-05-22T10:20:49.070Z,40.97
2023-05-22T10:23:18.661Z,42.14
2023-05-22T10:25:46.146Z,40.61
2023-05-22T10:28:20.913Z,41.16
2023-05-22T10:30:54.209Z,41.18
2023-05-22T10:33:25.336Z,40.06
2023-05-22T10:35:59.186Z,41.59
2023-05-22T10:38:51.648Z,41.85
2023-05-22T10:41:18.881Z,42.46
2023-05-22T10:43:50.036Z,43.54
2023-05-22T10:46:17.200Z,45.33
2023-05-22T10:48:48.730Z,53.62
2023-05-22T10:51:21.214Z,59.43
2023-05-22T10:54:08.122Z,63.92
2023-05-22T10:56:35.765Z,62.53
2023-05-22T10:59:08.465Z,62.37
2023-05-22T11:01:38.363Z,65.54
2023-05-22T11:04:06.911Z,68.35
2023-05-22T11:06:43.641Z,68.75
2023-05-22T11:09:32.779Z,69.59
2023-05-22T11:12:20.908Z,68.72
2023-05-22T11:15:06.209Z,69.04
2023-05-22T11:17:37.016Z,60.40
2023-05-22T11:20:07.450Z,62.38
2023-05-22T11:22:35.081Z,67.27
2023-05-22T11:25:06.335Z,65.62
2023-05-22T11:27:33.525Z,64.76
2023-05-22T11:30:02.337Z,60.54
2023-05-22T11:32:29.642Z,60.61
2023-05-22T11:34:57.616Z,62.36
2023-05-22T11:37:24.555Z,60.45
2023-05-22T11:39:58.960Z,64.55
2023-05-22T11:42:25.666Z,67.15
2023-05-22T11:44:52.452Z,67.70
2023-05-22T11:47:19.207Z,70.19
2023-05-22T11:49:46.389Z,70.83
2023-05-22T11:52:13.279Z,72.35
2023-05-22T11:54:39.945Z,73.07
2023-05-22T11:57:08.557Z,72.89
2023-05-22T11:59:35.295Z,71.24
2023-05-22T12:02:02.731Z,73.35
2023-05-22T12:04:29.833Z,67.41
2023-05-22T12:06:57.117Z,69.37
2023-05-22T12:09:24.334Z,65.07
2023-05-22T12:11:51.104Z,72.02
2023-05-22T12:14:17.867Z,72.73
2023-05-22T12:16:44.708Z,66.84
2023-05-22T12:19:13.142Z,64.87
2023-05-22T12:21:42.071Z,64.61
2023-05-22T12:24:08.815Z,64.58
2023-05-22T12:26:36.665Z,66.80
2023-05-22T12:29:06.498Z,69.76
2023-05-22T12:31:37.459Z,71.99
2023-05-22T12:34:06.845Z,71.91
2023-05-22T12:36:39.593Z,70.26
2023-05-22T12:39:16.983Z,70.70
2023-05-22T12:41:45.088Z,69.94
2023-05-22T12:44:12.536Z,64.97
2023-05-22T12:46:41.237Z,65.83
2023-05-22T12:49:08.324Z,69.19
2023-05-22T12:51:35.624Z,69.26
2023-05-22T12:54:03.188Z,62.62
2023-05-22T12:56:30.887Z,62.75
2023-05-22T12:58:58.631Z,63.94
2023-05-22T13:01:26.682Z,66.72
2023-05-22T13:03:53.762Z,59.84
2023-05-22T13:06:20.813Z,61.52
2023-05-22T13:08:47.637Z,59.25
2023-05-22T13:11:14.472Z,58.13
2023-05-22T13:13:41.204Z,56.46
2023-05-22T13:16:10.383Z,56.80
2023-05-22T13:18:37.624Z,55.70
2023-05-22T13:21:05.184Z,55.58
2023-05-22T13:23:32.748Z,52.56
2023-05-22T13:26:02.164Z,53.41
2023-05-22T13:28:29.221Z,54.48
2023-05-22T13:30:56.616Z,54.16
2023-05-22T13:33:23.358Z,56.66
2023-05-22T13:35:50.181Z,57.25
2023-05-22T13:38:16.993Z,54.82
2023-05-22T13:40:44.676Z,61.88
2023-05-22T13:43:12.471Z,60.35
2023-05-22T13:45:39.545Z,53.72
2023-05-22T13:48:06.928Z,56.02
2023-05-22T13:50:33.817Z,53.20
2023-05-22T13:53:00.528Z,55.81
2023-05-22T13:55:27.263Z,53.25
2023-05-22T13:57:53.972Z,53.48
2023-05-22T14:00:21.060Z,47.58
2023-05-22T14:02:48.181Z,47.48
2023-05-22T14:05:15.248Z,52.49
2023-05-22T14:07:42.037Z,46.07
2023-05-22T14:10:09.416Z,46.16
2023-05-22T14:12:37.326Z,47.50
2023-05-22T14:15:04.367Z,47.35
2023-05-22T14:17:31.126Z,47.26
2023-05-22T14:19:59.142Z,47.86
2023-05-22T14:22:25.933Z,47.77
2023-05-22T14:24:52.883Z,47.02
2023-05-22T14:27:19.535Z,46.73
2023-05-22T14:29:47.318Z,53.42
2023-05-22T14:32:13.953Z,46.56
2023-05-22T14:34:40.818Z,47.06
2023-05-22T14:37:07.535Z,47.11
2023-05-22T14:39:34.244Z,44.78
2023-05-22T14:42:01.052Z,46.69
2023-05-22T14:44:27.683Z,46.22
2023-05-22T14:46:54.714Z,45.71
2023-05-22T14:49:21.511Z,45.51
2023-05-22T14:51:48.445Z,47.43
2023-05-22T14:54:18.076Z,45.58
2023-05-22T14:56:45.740Z,43.65
2023-05-22T14:59:12.720Z,44.38
2023-05-22T15:01:39.843Z,45.43
2023-05-22T15:04:08.073Z,44.77
2023-05-22T15:06:35.176Z,44.65
2023-05-22T15:09:01.894Z,45.48
2023-05-22T15:11:28.600Z,45.48
2023-05-22T15:13:55.561Z,46.67
2023-05-22T15:16:22.732Z,50.27
2023-05-22T15:18:49.483Z,49.02
2023-05-22T15:21:16.881Z,49.75
2023-05-22T15:23:43.635Z,49.61
2023-05-22T15:26:10.530Z,50.71
2023-05-22T15:28:37.328Z,50.29
2023-05-22T15:31:03.969Z,50.97
2023-05-22T15:33:30.883Z,51.15
2023-05-22T15:35:57.585Z,51.57
2023-05-22T15:38:36.553Z,50.99
2023-05-22T15:41:03.263Z,51.18
2023-05-22T15:43:30.029Z,51.09
2023-05-22T15:45:56.723Z,52.09
2023-05-22T15:48:23.403Z,52.96
2023-05-22T15:50:50.015Z,55.15
2023-05-22T15:53:16.733Z,56.66
2023-05-22T15:55:43.420Z,57.39
2023-05-22T15:58:10.001Z,60.43
2023-05-22T16:00:41.157Z,59.99
2023-05-22T16:03:08.931Z,59.87
2023-05-22T16:05:39.573Z,62.03
2023-05-22T16:08:07.305Z,61.62
2023-05-22T16:10:34.547Z,58.84
2023-05-22T16:13:01.305Z,60.68
2023-05-22T16:15:28.001Z,61.91
2023-05-22T16:17:54.766Z,59.50
2023-05-22T16:20:22.723Z,58.82
2023-05-22T16:22:49.395Z,58.82
2023-05-22T16:25:17.469Z,58.45
2023-05-22T16:27:44.575Z,59.34
2023-05-22T16:30:12.162Z,57.59
2023-05-22T16:32:39.217Z,55.73
2023-05-22T16:35:06.278Z,55.25
2023-05-22T16:37:33.753Z,57.25
2023-05-22T16:40:00.680Z,58.34
2023-05-22T16:42:27.563Z,55.62
2023-05-22T16:44:54.193Z,55.78
2023-05-22T16:47:21.737Z,54.75
2023-05-22T16:49:48.433Z,55.18
2023-05-22T16:52:16.432Z,56.69
2023-05-22T16:54:43.074Z,56.63
2023-05-22T16:57:09.789Z,57.01
2023-05-22T16:59:36.442Z,55.92
2023-05-22T17:02:03.830Z,56.26
2023-05-22T17:04:31.114Z,57.72
2023-05-22T17:06:57.712Z,56.87
2023-05-22T17:09:24.354Z,58.34
2023-05-22T17:11:51.067Z,56.84
2023-05-22T17:14:17.746Z,56.02
2023-05-22T17:16:44.507Z,55.83
2023-05-22T17:19:11.313Z,54.88
2023-05-22T17:21:38.020Z,56.70
2023-05-22T17:24:04.977Z,55.29
2023-05-22T17:26:33.579Z,53.76
2023-05-22T17:29:00.287Z,54.94
2023-05-22T17:31:27.336Z,54.27
2023-05-22T17:33:54.136Z,54.08
2023-05-22T17:36:21.086Z,53.73
2023-05-22T17:38:47.790Z,54.29
2023-05-22T17:41:14.421Z,55.46
2023-05-22T17:43:41.083Z,55.26
2023-05-22T17:46:07.739Z,55.19
2023-05-22T17:48:34.539Z,54.42
2023-05-22T17:51:01.214Z,56.58
2023-05-22T17:53:32.097Z,57.57
2023-05-22T17:55:58.748Z,56.93
2023-05-22T17:58:25.416Z,56.27
2023-05-22T18:00:52.212Z,57.49
2023-05-22T18:03:22.196Z,58.04
2023-05-22T18:05:50.053Z,58.43
2023-05-22T18:08:17.540Z,58.69
2023-05-22T18:10:44.271Z,58.39
2023-05-22T18:13:11.133Z,58.06
2023-05-22T18:15:37.873Z,58.94
2023-05-22T18:18:04.778Z,62.65
2023-05-22T18:20:33.125Z,62.66
2023-05-22T18:23:00.369Z,62.49
2023-05-22T18:25:27.061Z,61.69
2023-05-22T18:27:55.170Z,60.57
2023-05-22T18:30:22.040Z,60.98
2023-05-22T18:32:48.768Z,61.35
2023-05-22T18:35:15.506Z,62.07
2023-05-22T18:37:42.174Z,62.11
2023-05-22T18:40:10.962Z,63.38
2023-05-22T18:42:37.662Z,64.51
2023-05-22T18:45:05.986Z,62.96
2023-05-22T18:47:32.736Z,65.61
2023-05-22T18:49:59.467Z,65.61
2023-05-22T18:52:26.265Z,65.62
2023-05-22T18:54:52.955Z,64.10
2023-05-22T18:57:19.621Z,64.89
2023-05-22T18:59:47.132Z,68.03
2023-05-22T19:02:16.484Z,66.63
2023-05-22T19:04:43.679Z,66.74
2023-05-22T19:07:10.411Z,64.15
2023-05-22T19:09:37.467Z,64.32
2023-05-22T19:12:05.552Z,63.85
2023-05-22T19:14:32.289Z,63.35
2023-05-22T19:17:02.034Z,63.23
2023-05-22T19:19:31.691Z,63.38
2023-05-22T19:21:58.440Z,64.43
2023-05-22T19:24:26.495Z,64.54
2023-05-22T19:26:53.105Z,65.53
2023-05-22T19:29:19.775Z,63.41
2023-05-22T19:31:46.412Z,61.96
2023-05-22T19:34:13.164Z,62.13
2023-05-22T19:36:39.838Z,62.33
2023-05-22T19:39:06.792Z,63.02
2023-05-22T19:41:33.436Z,63.26
2023-05-22T19:44:00.166Z,64.50
2023-05-22T19:46:27.016Z,64.60
2023-05-22T19:48:53.902Z,64.97
2023-05-22T19:51:20.669Z,63.90
2023-05-22T19:53:47.420Z,64.71
2023-05-22T19:56:14.053Z,62.06
2023-05-22T19:58:40.859Z,61.01
2023-05-22T20:01:07.556Z,61.65
2023-05-22T20:03:34.449Z,60.98
2023-05-22T20:06:02.068Z,59.49
2023-05-22T20:08:29.087Z,61.52
2023-05-22T20:10:55.827Z,62.28
2023-05-22T20:13:22.488Z,62.57
2023-05-22T20:15:51.264Z,62.78
2023-05-22T20:18:18.680Z,63.34
2023-05-22T20:20:45.410Z,63.82
2023-05-22T20:23:12.051Z,63.86
2023-05-22T20:25:39.411Z,66.23
2023-05-22T20:28:06.623Z,66.55
2023-05-22T20:30:33.238Z,64.82
2023-05-22T20:32:59.969Z,64.06
2023-05-22T20:35:26.939Z,64.23
2023-05-22T20:37:53.906Z,65.35
2023-05-22T20:40:20.664Z,67.38
2023-05-22T20:42:47.704Z,69.22
2023-05-22T20:45:16.018Z,67.36
2023-05-22T20:47:43.397Z,70.74
2023-05-22T20:50:11.278Z,71.93
2023-05-22T20:52:38.269Z,72.90
2023-05-22T20:55:05.804Z,72.37
2023-05-22T20:57:32.598Z,73.22
2023-05-22T20:59:59.479Z,72.86
2023-05-22T21:02:26.338Z,72.69
2023-05-22T21:04:53.592Z,70.93
2023-05-22T21:07:20.315Z,71.00
2023-05-22T21:09:46.996Z,69.55
2023-05-22T21:12:13.815Z,70.92
2023-05-22T21:14:40.943Z,70.85
2023-05-22T21:17:07.749Z,70.17
2023-05-22T21:19:34.513Z,69.50
2023-05-22T21:22:02.077Z,70.09
2023-05-22T21:24:28.716Z,70.01
2023-05-22T21:26:55.478Z,70.06
2023-05-22T21:29:22.183Z,70.73
2023-05-22T21:31:48.914Z,69.38
2023-05-22T21:34:15.730Z,69.78
2023-05-22T21:36:42.424Z,71.28
2023-05-22T21:39:09.047Z,72.58
2023-05-22T21:41:35.935Z,73.21
2023-05-22T21:44:02.643Z,71.75
2023-05-22T21:46:29.295Z,70.03
2023-05-22T21:48:56.183Z,69.49
2023-05-22T21:51:22.904Z,68.96
2023-05-22T21:53:49.570Z,68.51
2023-05-22T21:56:16.316Z,67.41
2023-05-22T21:58:43.043Z,67.21
2023-05-22T22:01:10.228Z,68.29
2023-05-22T22:03:39.120Z,68.03
2023-05-22T22:06:06.400Z,69.42
2023-05-22T22:08:33.692Z,69.62
2023-05-22T22:11:00.537Z,69.45
2023-05-22T22:13:27.478Z,69.72
2023-05-22T22:15:54.256Z,71.17
2023-05-22T22:18:21.042Z,72.35
2023-05-22T22:20:50.151Z,71.56
2023-05-22T22:23:17.117Z,70.67
2023-05-22T22:25:44.570Z,71.23
2023-05-22T22:28:11.691Z,70.12
2023-05-22T22:30:38.703Z,69.92
2023-05-22T22:33:06.676Z,69.27
2023-05-22T22:35:33.998Z,69.62
2023-05-22T22:38:01.107Z,70.49
2023-05-22T22:40:27.822Z,70.04
2023-05-22T22:42:55.993Z,68.75
2023-05-22T22:45:23.320Z,68.46
2023-05-22T22:47:50.854Z,67.54
2023-05-22T22:50:18.233Z,70.05
2023-05-22T22:52:48.494Z,69.42
2023-05-22T22:55:16.288Z,68.51
2023-05-22T22:57:44.766Z,68.85
2023-05-22T23:00:16.112Z,68.96
2023-05-22T23:02:43.464Z,70.76
2023-05-22T23:05:11.023Z,72.37
2023-05-22T23:07:38.193Z,72.76
2023-05-22T23:10:05.175Z,72.82
2023-05-22T23:12:35.234Z,74.65
2023-05-22T23:15:02.923Z,74.97
2023-05-22T23:17:30.228Z,74.96
2023-05-22T23:19:57.368Z,76.31
2023-05-22T23:22:26.490Z,75.94
2023-05-22T23:24:53.181Z,74.02
2023-05-22T23:27:19.802Z,72.43
2023-05-22T23:29:46.519Z,71.09
2023-05-22T23:32:14.743Z,70.46
2023-05-22T23:34:42.445Z,69.99
2023-05-22T23:37:10.132Z,69.29
2023-05-22T23:39:36.820Z,68.08
2023-05-22T23:42:03.926Z,67.83
2023-05-22T23:44:31.368Z,67.27
2023-05-22T23:46:58.213Z,68.95
2023-05-22T23:49:24.930Z,69.99
2023-05-22T23:51:51.668Z,71.33
2023-05-22T23:54:18.393Z,71.29
2023-05-22T23:56:45.362Z,71.42
2023-05-22T23:59:12.046Z,70.78
